This is the latest recevied weather packets stored in our database for station/object KJ5IIV. If no packets are shown the sender has not sent any weather packets the latest 10 day(s).
| Time | Temp. | Humidity | Pressure | Rain* | Wind** | Luminosity | Snow |
|---|---|---|---|---|---|---|---|
| 1777661275 | 15° C | 81% | 1015 hPa | 0 mm | - | 657 W/m² | - |
| 1777660970 | 14.44° C | 83% | 1015.4 hPa | 0 mm | - | 824 W/m² | - |
| 1777660666 | 14.44° C | 82% | 1015.8 hPa | 0 mm | - | 383 W/m² | - |
| 1777660364 | 14.44° C | 85% | 1015.7 hPa | 0 mm | - | 521 W/m² | - |
| 1777660060 | 13.89° C | 84% | 1015.7 hPa | 0 mm | - | 388 W/m² | - |
| 1777659757 | 13.89° C | 82% | 1016.1 hPa | 0 mm | - | 277 W/m² | - |
| 1777659453 | 13.89° C | 83% | 1016.3 hPa | 0 mm | - | 227 W/m² | - |
| 1777659151 | 13.33° C | 82% | 1016.3 hPa | 0 mm | - | 248 W/m² | - |
| 1777658849 | 13.33° C | 83% | 1016.5 hPa | 0 mm | - | 288 W/m² | - |
| 1777658544 | 13.33° C | 84% | 1016.5 hPa | 0 mm | - | 244 W/m² | - |
| 1777658241 | 13.33° C | 83% | 1016.6 hPa | 0 mm | - | 241 W/m² | - |
| 1777657938 | 13.33° C | 86% | 1016.3 hPa | 0 mm | - | 279 W/m² | - |
| 1777657635 | 13.33° C | 85% | 1016.7 hPa | 0 mm | - | 203 W/m² | - |
| 1777657332 | 13.33° C | 87% | 1016.6 hPa | 0 mm | - | 270 W/m² | - |
| 1777657030 | 12.78° C | 87% | 1016.3 hPa | 0 mm | - | 264 W/m² | - |
| 1777656727 | 12.78° C | 87% | 1016.5 hPa | 0 mm | - | 221 W/m² | - |
| 1777656423 | 12.78° C | 88% | 1016.7 hPa | 0 mm | - | 181 W/m² | - |
| 1777656118 | 12.78° C | 88% | 1016.7 hPa | 0 mm | - | 171 W/m² | - |
| 1777655814 | 12.78° C | 89% | 1017 hPa | 0 mm | - | 144 W/m² | - |
| 1777655511 | 12.78° C | 89% | 1017.1 hPa | 0 mm | - | 123 W/m² | - |
| 1777655208 | 12.78° C | 89% | 1017.1 hPa | 0 mm | - | 110 W/m² | - |
| 1777654905 | 12.78° C | 91% | 1017.4 hPa | 0 mm | - | 105 W/m² | - |
| 1777654602 | 12.78° C | 91% | 1017.4 hPa | 0 mm | - | 168 W/m² | - |
| 1777654299 | 12.78° C | 91% | 1017 hPa | 0 mm | - | 208 W/m² | - |
| 1777653998 | 12.78° C | 92% | 1017.1 hPa | 0 mm | - | 237 W/m² | - |
* Rain latest hour (hover to see other rain measurements)
** Current wind speed in m/s (hover to see current wind gust speed)